sensor_id;sensor_type;location;lat;lon;timestamp;temperature;humidity
68476;DHT22;55464;48.266;14.188;2023-01-10T00:00:25;5.50;84.40
68476;DHT22;55464;48.266;14.188;2023-01-10T00:02:51;5.40;85.00
68476;DHT22;55464;48.266;14.188;2023-01-10T00:05:17;5.40;85.30
68476;DHT22;55464;48.266;14.188;2023-01-10T00:07:44;5.40;85.50
68476;DHT22;55464;48.266;14.188;2023-01-10T00:10:10;5.40;85.70
68476;DHT22;55464;48.266;14.188;2023-01-10T00:12:36;5.40;85.80
68476;DHT22;55464;48.266;14.188;2023-01-10T00:15:20;5.40;86.00
68476;DHT22;55464;48.266;14.188;2023-01-10T00:17:45;5.30;86.00
68476;DHT22;55464;48.266;14.188;2023-01-10T00:20:11;5.40;86.10
68476;DHT22;55464;48.266;14.188;2023-01-10T00:22:37;5.40;86.30
68476;DHT22;55464;48.266;14.188;2023-01-10T00:25:03;5.40;86.00
68476;DHT22;55464;48.266;14.188;2023-01-10T00:27:29;5.40;86.30
68476;DHT22;55464;48.266;14.188;2023-01-10T00:29:55;5.40;86.40
68476;DHT22;55464;48.266;14.188;2023-01-10T00:32:22;5.50;86.20
68476;DHT22;55464;48.266;14.188;2023-01-10T00:34:48;5.40;86.30
68476;DHT22;55464;48.266;14.188;2023-01-10T00:37:14;5.40;86.60
68476;DHT22;55464;48.266;14.188;2023-01-10T00:39:39;5.30;86.50
68476;DHT22;55464;48.266;14.188;2023-01-10T00:42:05;5.40;86.60
68476;DHT22;55464;48.266;14.188;2023-01-10T00:44:49;5.40;86.50
68476;DHT22;55464;48.266;14.188;2023-01-10T00:47:15;5.30;86.70
68476;DHT22;55464;48.266;14.188;2023-01-10T00:49:43;5.30;87.00
68476;DHT22;55464;48.266;14.188;2023-01-10T00:52:08;5.30;86.80
68476;DHT22;55464;48.266;14.188;2023-01-10T00:54:34;5.40;86.50
68476;DHT22;55464;48.266;14.188;2023-01-10T00:57:00;5.30;86.00
68476;DHT22;55464;48.266;14.188;2023-01-10T00:59:25;5.20;86.10
68476;DHT22;55464;48.266;14.188;2023-01-10T01:01:51;5.20;86.10
68476;DHT22;55464;48.266;14.188;2023-01-10T01:04:17;5.30;85.90
68476;DHT22;55464;48.266;14.188;2023-01-10T01:06:43;5.20;85.70
68476;DHT22;55464;48.266;14.188;2023-01-10T01:09:11;5.10;86.00
68476;DHT22;55464;48.266;14.188;2023-01-10T01:11:36;5.20;85.40
68476;DHT22;55464;48.266;14.188;2023-01-10T01:14:02;5.10;85.70
68476;DHT22;55464;48.266;14.188;2023-01-10T01:16:28;5.20;85.30
68476;DHT22;55464;48.266;14.188;2023-01-10T01:18:53;5.10;85.40
68476;DHT22;55464;48.266;14.188;2023-01-10T01:21:19;5.20;85.20
68476;DHT22;55464;48.266;14.188;2023-01-10T01:23:45;5.10;85.50
68476;DHT22;55464;48.266;14.188;2023-01-10T01:26:11;5.10;85.40
68476;DHT22;55464;48.266;14.188;2023-01-10T01:28:37;5.10;85.00
68476;DHT22;55464;48.266;14.188;2023-01-10T01:31:07;5.10;85.20
68476;DHT22;55464;48.266;14.188;2023-01-10T01:33:33;5.10;85.00
68476;DHT22;55464;48.266;14.188;2023-01-10T01:35:59;5.10;84.60
68476;DHT22;55464;48.266;14.188;2023-01-10T01:38:24;5.10;84.90
68476;DHT22;55464;48.266;14.188;2023-01-10T01:40:50;5.10;85.00
68476;DHT22;55464;48.266;14.188;2023-01-10T01:43:27;5.10;84.80
68476;DHT22;55464;48.266;14.188;2023-01-10T01:45:54;5.10;84.40
68476;DHT22;55464;48.266;14.188;2023-01-10T01:48:26;5.10;84.40
68476;DHT22;55464;48.266;14.188;2023-01-10T01:53:46;5.10;84.80
68476;DHT22;55464;48.266;14.188;2023-01-10T01:56:20;5.10;84.70
68476;DHT22;55464;48.266;14.188;2023-01-10T01:58:55;5.10;84.70
68476;DHT22;55464;48.266;14.188;2023-01-10T02:01:22;5.10;85.30
68476;DHT22;55464;48.266;14.188;2023-01-10T02:03:52;5.10;84.90
68476;DHT22;55464;48.266;14.188;2023-01-10T02:06:21;5.10;85.20
68476;DHT22;55464;48.266;14.188;2023-01-10T02:08:54;5.20;84.70
68476;DHT22;55464;48.266;14.188;2023-01-10T02:11:23;5.20;85.00
68476;DHT22;55464;48.266;14.188;2023-01-10T02:13:49;5.10;85.30
68476;DHT22;55464;48.266;14.188;2023-01-10T02:16:16;5.10;85.50
68476;DHT22;55464;48.266;14.188;2023-01-10T02:18:42;5.10;85.40
68476;DHT22;55464;48.266;14.188;2023-01-10T02:37:59;5.10;84.90
68476;DHT22;55464;48.266;14.188;2023-01-10T02:43:34;5.10;85.00
68476;DHT22;55464;48.266;14.188;2023-01-10T02:46:06;5.10;84.80
68476;DHT22;55464;48.266;14.188;2023-01-10T02:48:33;5.20;84.90
68476;DHT22;55464;48.266;14.188;2023-01-10T02:51:03;5.20;84.80
68476;DHT22;55464;48.266;14.188;2023-01-10T02:53:36;5.20;84.60
68476;DHT22;55464;48.266;14.188;2023-01-10T02:59:43;5.30;84.00
68476;DHT22;55464;48.266;14.188;2023-01-10T03:04:50;5.30;83.30
68476;DHT22;55464;48.266;14.188;2023-01-10T03:07:25;5.30;83.30
68476;DHT22;55464;48.266;14.188;2023-01-10T03:13:03;5.40;82.90
68476;DHT22;55464;48.266;14.188;2023-01-10T03:15:33;5.30;83.00
68476;DHT22;55464;48.266;14.188;2023-01-10T03:18:03;5.20;83.20
68476;DHT22;55464;48.266;14.188;2023-01-10T03:20:32;5.20;83.20
68476;DHT22;55464;48.266;14.188;2023-01-10T03:23:00;5.20;83.10
68476;DHT22;55464;48.266;14.188;2023-01-10T03:25:31;5.20;83.50
68476;DHT22;55464;48.266;14.188;2023-01-10T03:28:17;5.20;83.10
68476;DHT22;55464;48.266;14.188;2023-01-10T03:31:07;5.20;83.40
68476;DHT22;55464;48.266;14.188;2023-01-10T03:33:35;5.20;83.70
68476;DHT22;55464;48.266;14.188;2023-01-10T03:38:43;5.20;84.00
68476;DHT22;55464;48.266;14.188;2023-01-10T03:47:05;5.10;85.30
68476;DHT22;55464;48.266;14.188;2023-01-10T03:49:32;5.10;85.50
68476;DHT22;55464;48.266;14.188;2023-01-10T03:51:59;5.00;86.10
68476;DHT22;55464;48.266;14.188;2023-01-10T03:54:26;5.00;86.20
68476;DHT22;55464;48.266;14.188;2023-01-10T03:56:52;5.00;86.00
68476;DHT22;55464;48.266;14.188;2023-01-10T03:59:21;5.00;86.50
68476;DHT22;55464;48.266;14.188;2023-01-10T04:01:49;5.00;86.20
68476;DHT22;55464;48.266;14.188;2023-01-10T04:04:15;5.10;85.90
68476;DHT22;55464;48.266;14.188;2023-01-10T04:06:40;5.10;85.90
68476;DHT22;55464;48.266;14.188;2023-01-10T04:09:06;5.00;85.80
68476;DHT22;55464;48.266;14.188;2023-01-10T04:11:32;5.10;85.30
68476;DHT22;55464;48.266;14.188;2023-01-10T04:13:58;5.00;85.60
68476;DHT22;55464;48.266;14.188;2023-01-10T04:16:23;5.10;85.60
68476;DHT22;55464;48.266;14.188;2023-01-10T04:18:49;5.10;85.60
68476;DHT22;55464;48.266;14.188;2023-01-10T04:21:15;5.00;86.20
68476;DHT22;55464;48.266;14.188;2023-01-10T04:23:41;5.00;86.20
68476;DHT22;55464;48.266;14.188;2023-01-10T04:26:06;5.00;86.20
68476;DHT22;55464;48.266;14.188;2023-01-10T04:28:32;5.10;86.10
68476;DHT22;55464;48.266;14.188;2023-01-10T04:30:58;5.10;85.90
68476;DHT22;55464;48.266;14.188;2023-01-10T04:33:23;5.00;86.00
68476;DHT22;55464;48.266;14.188;2023-01-10T04:35:50;5.10;85.80
68476;DHT22;55464;48.266;14.188;2023-01-10T04:38:16;5.00;86.00
68476;DHT22;55464;48.266;14.188;2023-01-10T04:40:42;5.10;85.90
68476;DHT22;55464;48.266;14.188;2023-01-10T04:43:09;5.00;85.90
68476;DHT22;55464;48.266;14.188;2023-01-10T04:45:35;5.00;85.60
68476;DHT22;55464;48.266;14.188;2023-01-10T04:48:00;5.00;85.90
68476;DHT22;55464;48.266;14.188;2023-01-10T04:50:26;5.00;86.00
68476;DHT22;55464;48.266;14.188;2023-01-10T04:52:52;5.00;86.00
68476;DHT22;55464;48.266;14.188;2023-01-10T04:55:18;5.00;85.60
68476;DHT22;55464;48.266;14.188;2023-01-10T04:57:43;5.00;85.30
68476;DHT22;55464;48.266;14.188;2023-01-10T05:00:10;5.00;85.30
68476;DHT22;55464;48.266;14.188;2023-01-10T05:02:36;5.00;85.30
68476;DHT22;55464;48.266;14.188;2023-01-10T05:05:12;5.00;85.50
68476;DHT22;55464;48.266;14.188;2023-01-10T05:07:38;5.10;85.40
68476;DHT22;55464;48.266;14.188;2023-01-10T05:10:05;5.10;85.20
68476;DHT22;55464;48.266;14.188;2023-01-10T05:12:31;5.00;85.20
68476;DHT22;55464;48.266;14.188;2023-01-10T05:14:57;5.00;85.40
68476;DHT22;55464;48.266;14.188;2023-01-10T05:17:22;5.00;85.30
68476;DHT22;55464;48.266;14.188;2023-01-10T05:19:48;5.00;85.30
68476;DHT22;55464;48.266;14.188;2023-01-10T05:22:14;5.10;84.90
68476;DHT22;55464;48.266;14.188;2023-01-10T05:24:40;5.10;84.80
68476;DHT22;55464;48.266;14.188;2023-01-10T05:27:06;5.00;84.80
68476;DHT22;55464;48.266;14.188;2023-01-10T05:29:32;5.00;85.00
68476;DHT22;55464;48.266;14.188;2023-01-10T05:31:58;5.10;84.80
68476;DHT22;55464;48.266;14.188;2023-01-10T05:34:24;5.00;84.70
68476;DHT22;55464;48.266;14.188;2023-01-10T05:36:49;5.10;84.60
68476;DHT22;55464;48.266;14.188;2023-01-10T05:39:15;5.10;84.30
68476;DHT22;55464;48.266;14.188;2023-01-10T05:41:41;5.10;84.40
68476;DHT22;55464;48.266;14.188;2023-01-10T05:44:07;5.10;84.50
68476;DHT22;55464;48.266;14.188;2023-01-10T05:46:33;5.10;84.40
68476;DHT22;55464;48.266;14.188;2023-01-10T05:48:58;5.10;84.20
68476;DHT22;55464;48.266;14.188;2023-01-10T05:51:24;5.20;83.90
68476;DHT22;55464;48.266;14.188;2023-01-10T05:53:50;5.20;84.00
68476;DHT22;55464;48.266;14.188;2023-01-10T05:56:16;5.10;84.10
68476;DHT22;55464;48.266;14.188;2023-01-10T05:58:42;5.10;84.20
68476;DHT22;55464;48.266;14.188;2023-01-10T06:01:08;5.00;84.60
68476;DHT22;55464;48.266;14.188;2023-01-10T06:03:34;5.10;84.10
68476;DHT22;55464;48.266;14.188;2023-01-10T06:06:00;5.10;84.00
68476;DHT22;55464;48.266;14.188;2023-01-10T06:08:27;5.10;84.10
68476;DHT22;55464;48.266;14.188;2023-01-10T06:10:53;5.10;84.70
68476;DHT22;55464;48.266;14.188;2023-01-10T06:13:19;5.20;84.10
68476;DHT22;55464;48.266;14.188;2023-01-10T06:15:45;5.20;83.70
68476;DHT22;55464;48.266;14.188;2023-01-10T06:18:10;5.10;83.80
68476;DHT22;55464;48.266;14.188;2023-01-10T06:20:36;5.20;83.60
68476;DHT22;55464;48.266;14.188;2023-01-10T06:23:02;5.10;83.90
68476;DHT22;55464;48.266;14.188;2023-01-10T06:25:33;5.10;83.70
68476;DHT22;55464;48.266;14.188;2023-01-10T06:28:01;5.10;83.50
68476;DHT22;55464;48.266;14.188;2023-01-10T06:30:27;5.10;84.00
68476;DHT22;55464;48.266;14.188;2023-01-10T06:32:53;5.10;84.20
68476;DHT22;55464;48.266;14.188;2023-01-10T06:35:19;5.10;84.10
68476;DHT22;55464;48.266;14.188;2023-01-10T06:37:45;5.10;84.20
68476;DHT22;55464;48.266;14.188;2023-01-10T06:40:11;5.10;84.30
68476;DHT22;55464;48.266;14.188;2023-01-10T06:42:37;5.10;84.20
68476;DHT22;55464;48.266;14.188;2023-01-10T06:45:04;5.10;83.90
68476;DHT22;55464;48.266;14.188;2023-01-10T06:47:30;5.10;83.90
68476;DHT22;55464;48.266;14.188;2023-01-10T06:49:55;5.10;83.80
68476;DHT22;55464;48.266;14.188;2023-01-10T06:52:21;5.10;83.70
68476;DHT22;55464;48.266;14.188;2023-01-10T06:54:47;5.10;83.50
68476;DHT22;55464;48.266;14.188;2023-01-10T06:57:13;5.20;83.20
68476;DHT22;55464;48.266;14.188;2023-01-10T06:59:39;5.10;83.30
68476;DHT22;55464;48.266;14.188;2023-01-10T07:02:05;5.10;83.10
68476;DHT22;55464;48.266;14.188;2023-01-10T07:04:30;5.10;83.30
68476;DHT22;55464;48.266;14.188;2023-01-10T07:06:56;5.10;83.50
68476;DHT22;55464;48.266;14.188;2023-01-10T07:09:22;5.10;83.60
68476;DHT22;55464;48.266;14.188;2023-01-10T07:11:47;5.10;83.40
68476;DHT22;55464;48.266;14.188;2023-01-10T07:14:13;5.20;83.00
68476;DHT22;55464;48.266;14.188;2023-01-10T07:16:38;5.20;83.10
68476;DHT22;55464;48.266;14.188;2023-01-10T07:19:04;5.10;83.20
68476;DHT22;55464;48.266;14.188;2023-01-10T07:21:30;5.20;83.00
68476;DHT22;55464;48.266;14.188;2023-01-10T07:23:55;5.20;83.20
68476;DHT22;55464;48.266;14.188;2023-01-10T07:26:22;5.10;83.50
68476;DHT22;55464;48.266;14.188;2023-01-10T07:28:49;5.10;83.60
68476;DHT22;55464;48.266;14.188;2023-01-10T07:31:16;5.20;83.40
68476;DHT22;55464;48.266;14.188;2023-01-10T07:33:43;5.10;83.60
68476;DHT22;55464;48.266;14.188;2023-01-10T07:36:08;5.10;83.90
68476;DHT22;55464;48.266;14.188;2023-01-10T07:38:35;5.10;84.20
68476;DHT22;55464;48.266;14.188;2023-01-10T07:41:02;5.10;84.20
68476;DHT22;55464;48.266;14.188;2023-01-10T07:43:28;5.10;84.00
68476;DHT22;55464;48.266;14.188;2023-01-10T07:45:57;5.10;84.20
68476;DHT22;55464;48.266;14.188;2023-01-10T07:48:23;5.10;84.50
68476;DHT22;55464;48.266;14.188;2023-01-10T07:50:49;5.10;84.40
68476;DHT22;55464;48.266;14.188;2023-01-10T07:53:14;5.10;84.70
68476;DHT22;55464;48.266;14.188;2023-01-10T07:55:40;5.10;84.90
68476;DHT22;55464;48.266;14.188;2023-01-10T07:58:07;5.10;85.50
68476;DHT22;55464;48.266;14.188;2023-01-10T08:00:33;5.10;85.60
68476;DHT22;55464;48.266;14.188;2023-01-10T08:02:59;5.20;85.40
68476;DHT22;55464;48.266;14.188;2023-01-10T08:05:25;5.20;85.50
68476;DHT22;55464;48.266;14.188;2023-01-10T08:07:51;5.30;85.20
68476;DHT22;55464;48.266;14.188;2023-01-10T08:10:17;5.30;85.20
68476;DHT22;55464;48.266;14.188;2023-01-10T08:12:42;5.20;85.40
68476;DHT22;55464;48.266;14.188;2023-01-10T08:15:08;5.30;85.30
68476;DHT22;55464;48.266;14.188;2023-01-10T08:17:35;5.30;85.50
68476;DHT22;55464;48.266;14.188;2023-01-10T08:20:01;5.30;85.30
68476;DHT22;55464;48.266;14.188;2023-01-10T08:22:27;5.30;85.10
68476;DHT22;55464;48.266;14.188;2023-01-10T08:24:52;5.30;85.20
68476;DHT22;55464;48.266;14.188;2023-01-10T08:27:18;5.30;85.30
68476;DHT22;55464;48.266;14.188;2023-01-10T08:29:44;5.40;85.40
68476;DHT22;55464;48.266;14.188;2023-01-10T08:32:10;5.40;85.00
68476;DHT22;55464;48.266;14.188;2023-01-10T08:34:36;5.40;85.00
68476;DHT22;55464;48.266;14.188;2023-01-10T08:37:01;5.30;85.00
68476;DHT22;55464;48.266;14.188;2023-01-10T08:39:28;5.30;85.20
68476;DHT22;55464;48.266;14.188;2023-01-10T08:41:55;5.30;85.10
68476;DHT22;55464;48.266;14.188;2023-01-10T08:44:21;5.30;85.20
68476;DHT22;55464;48.266;14.188;2023-01-10T08:46:46;5.40;85.00
68476;DHT22;55464;48.266;14.188;2023-01-10T08:49:12;5.50;84.70
68476;DHT22;55464;48.266;14.188;2023-01-10T08:51:38;5.50;84.90
68476;DHT22;55464;48.266;14.188;2023-01-10T08:54:04;5.50;85.00
68476;DHT22;55464;48.266;14.188;2023-01-10T08:56:30;5.40;85.00
68476;DHT22;55464;48.266;14.188;2023-01-10T08:58:56;5.40;84.60
68476;DHT22;55464;48.266;14.188;2023-01-10T09:01:21;5.60;84.20
68476;DHT22;55464;48.266;14.188;2023-01-10T09:03:47;5.50;84.60
68476;DHT22;55464;48.266;14.188;2023-01-10T09:06:13;5.60;84.50
68476;DHT22;55464;48.266;14.188;2023-01-10T09:08:38;5.60;84.60
68476;DHT22;55464;48.266;14.188;2023-01-10T09:11:04;5.60;84.70
68476;DHT22;55464;48.266;14.188;2023-01-10T09:13:31;5.60;84.50
68476;DHT22;55464;48.266;14.188;2023-01-10T09:15:58;5.60;84.50
68476;DHT22;55464;48.266;14.188;2023-01-10T09:18:24;5.60;84.60
68476;DHT22;55464;48.266;14.188;2023-01-10T09:20:52;5.60;84.60
68476;DHT22;55464;48.266;14.188;2023-01-10T09:23:19;5.50;84.80
68476;DHT22;55464;48.266;14.188;2023-01-10T09:25:46;5.60;84.50
68476;DHT22;55464;48.266;14.188;2023-01-10T09:28:13;5.60;84.70
68476;DHT22;55464;48.266;14.188;2023-01-10T09:30:38;5.50;84.80
68476;DHT22;55464;48.266;14.188;2023-01-10T09:33:05;5.60;84.60
68476;DHT22;55464;48.266;14.188;2023-01-10T09:35:33;5.60;84.70
68476;DHT22;55464;48.266;14.188;2023-01-10T09:38:00;5.60;84.40
68476;DHT22;55464;48.266;14.188;2023-01-10T09:40:32;5.60;84.20
68476;DHT22;55464;48.266;14.188;2023-01-10T09:45:47;5.60;83.60
68476;DHT22;55464;48.266;14.188;2023-01-10T09:51:45;5.60;84.00
68476;DHT22;55464;48.266;14.188;2023-01-10T09:54:31;5.60;84.20
68476;DHT22;55464;48.266;14.188;2023-01-10T09:57:00;5.60;84.20
68476;DHT22;55464;48.266;14.188;2023-01-10T09:59:34;5.60;84.20
68476;DHT22;55464;48.266;14.188;2023-01-10T10:07:34;5.60;84.30
68476;DHT22;55464;48.266;14.188;2023-01-10T10:10:00;5.60;84.40
68476;DHT22;55464;48.266;14.188;2023-01-10T10:12:51;5.60;84.70
68476;DHT22;55464;48.266;14.188;2023-01-10T10:28:28;5.60;84.30
68476;DHT22;55464;48.266;14.188;2023-01-10T10:36:52;5.70;83.80
68476;DHT22;55464;48.266;14.188;2023-01-10T10:39:23;5.60;83.90
68476;DHT22;55464;48.266;14.188;2023-01-10T10:41:52;5.60;84.20
68476;DHT22;55464;48.266;14.188;2023-01-10T10:44:53;5.60;83.80
68476;DHT22;55464;48.266;14.188;2023-01-10T10:47:20;5.60;83.80
68476;DHT22;55464;48.266;14.188;2023-01-10T10:52:25;5.60;83.70
68476;DHT22;55464;48.266;14.188;2023-01-10T10:54:52;5.70;83.50
68476;DHT22;55464;48.266;14.188;2023-01-10T10:57:22;5.70;83.60
68476;DHT22;55464;48.266;14.188;2023-01-10T10:59:48;5.60;83.70
68476;DHT22;55464;48.266;14.188;2023-01-10T11:02:26;5.70;83.60
68476;DHT22;55464;48.266;14.188;2023-01-10T11:05:04;5.70;83.40
68476;DHT22;55464;48.266;14.188;2023-01-10T11:07:33;5.80;83.30
68476;DHT22;55464;48.266;14.188;2023-01-10T11:10:08;5.70;83.20
68476;DHT22;55464;48.266;14.188;2023-01-10T11:12:44;5.70;83.10
68476;DHT22;55464;48.266;14.188;2023-01-10T11:15:36;5.60;83.20
68476;DHT22;55464;48.266;14.188;2023-01-10T11:18:22;5.60;83.30
68476;DHT22;55464;48.266;14.188;2023-01-10T11:26:30;5.80;82.90
68476;DHT22;55464;48.266;14.188;2023-01-10T11:31:48;5.80;83.40
68476;DHT22;55464;48.266;14.188;2023-01-10T11:36:59;5.80;83.30
68476;DHT22;55464;48.266;14.188;2023-01-10T11:39:26;5.90;83.20
68476;DHT22;55464;48.266;14.188;2023-01-10T11:41:52;5.90;83.00
68476;DHT22;55464;48.266;14.188;2023-01-10T11:46:48;5.90;83.30
68476;DHT22;55464;48.266;14.188;2023-01-10T11:49:24;5.90;83.20
68476;DHT22;55464;48.266;14.188;2023-01-10T11:51:54;6.00;82.70
68476;DHT22;55464;48.266;14.188;2023-01-10T11:54:22;6.00;82.20
68476;DHT22;55464;48.266;14.188;2023-01-10T11:56:59;5.90;82.00
68476;DHT22;55464;48.266;14.188;2023-01-10T11:59:26;6.00;82.30
68476;DHT22;55464;48.266;14.188;2023-01-10T12:04:49;6.00;82.20
68476;DHT22;55464;48.266;14.188;2023-01-10T12:07:15;6.00;81.60
68476;DHT22;55464;48.266;14.188;2023-01-10T12:09:53;6.00;81.40
68476;DHT22;55464;48.266;14.188;2023-01-10T12:14:47;6.00;81.30
68476;DHT22;55464;48.266;14.188;2023-01-10T12:17:26;6.00;81.40
68476;DHT22;55464;48.266;14.188;2023-01-10T12:19:54;6.10;81.80
68476;DHT22;55464;48.266;14.188;2023-01-10T12:22:26;6.10;81.20
68476;DHT22;55464;48.266;14.188;2023-01-10T12:24:53;6.20;80.40
68476;DHT22;55464;48.266;14.188;2023-01-10T12:27:22;6.30;80.30
68476;DHT22;55464;48.266;14.188;2023-01-10T12:30:00;6.30;80.40
68476;DHT22;55464;48.266;14.188;2023-01-10T12:32:35;6.30;80.50
68476;DHT22;55464;48.266;14.188;2023-01-10T12:35:05;6.40;79.80
68476;DHT22;55464;48.266;14.188;2023-01-10T12:37:43;6.40;78.90
68476;DHT22;55464;48.266;14.188;2023-01-10T12:42:53;6.30;79.20
68476;DHT22;55464;48.266;14.188;2023-01-10T12:45:55;6.40;79.50
68476;DHT22;55464;48.266;14.188;2023-01-10T12:51:04;6.50;79.40
68476;DHT22;55464;48.266;14.188;2023-01-10T12:53:38;6.50;78.50
68476;DHT22;55464;48.266;14.188;2023-01-10T12:56:06;6.50;78.50
68476;DHT22;55464;48.266;14.188;2023-01-10T12:59:10;6.50;77.60
68476;DHT22;55464;48.266;14.188;2023-01-10T13:01:38;6.50;77.80
68476;DHT22;55464;48.266;14.188;2023-01-10T13:04:09;6.50;78.90
68476;DHT22;55464;48.266;14.188;2023-01-10T13:06:39;6.50;78.80
68476;DHT22;55464;48.266;14.188;2023-01-10T13:11:55;6.30;78.70
68476;DHT22;55464;48.266;14.188;2023-01-10T13:14:26;6.30;79.60
68476;DHT22;55464;48.266;14.188;2023-01-10T13:17:13;6.10;79.50
68476;DHT22;55464;48.266;14.188;2023-01-10T13:19:41;6.20;79.70
68476;DHT22;55464;48.266;14.188;2023-01-10T13:24:41;6.20;79.80
68476;DHT22;55464;48.266;14.188;2023-01-10T13:27:19;6.20;79.00
68476;DHT22;55464;48.266;14.188;2023-01-10T13:29:45;6.10;79.20
68476;DHT22;55464;48.266;14.188;2023-01-10T13:32:31;6.10;79.00
68476;DHT22;55464;48.266;14.188;2023-01-10T13:35:16;6.10;79.10
68476;DHT22;55464;48.266;14.188;2023-01-10T13:37:49;6.30;78.60
68476;DHT22;55464;48.266;14.188;2023-01-10T13:40:33;6.40;76.90
68476;DHT22;55464;48.266;14.188;2023-01-10T13:43:24;6.30;76.50
68476;DHT22;55464;48.266;14.188;2023-01-10T13:48:40;6.00;76.80
68476;DHT22;55464;48.266;14.188;2023-01-10T13:53:43;6.00;76.50
68476;DHT22;55464;48.266;14.188;2023-01-10T13:58:54;6.00;76.10
68476;DHT22;55464;48.266;14.188;2023-01-10T14:01:38;6.00;75.70
68476;DHT22;55464;48.266;14.188;2023-01-10T14:04:34;5.80;76.10
68476;DHT22;55464;48.266;14.188;2023-01-10T14:07:22;5.80;76.60
68476;DHT22;55464;48.266;14.188;2023-01-10T14:09:49;5.90;76.50
68476;DHT22;55464;48.266;14.188;2023-01-10T14:12:28;5.80;76.40
68476;DHT22;55464;48.266;14.188;2023-01-10T14:14:58;5.80;76.30
68476;DHT22;55464;48.266;14.188;2023-01-10T14:17:30;5.80;76.70
68476;DHT22;55464;48.266;14.188;2023-01-10T14:22:34;5.90;77.00
68476;DHT22;55464;48.266;14.188;2023-01-10T14:25:03;5.90;77.30
68476;DHT22;55464;48.266;14.188;2023-01-10T14:27:42;5.90;77.60
68476;DHT22;55464;48.266;14.188;2023-01-10T14:30:23;5.80;77.70
68476;DHT22;55464;48.266;14.188;2023-01-10T14:32:52;5.80;78.30
68476;DHT22;55464;48.266;14.188;2023-01-10T14:35:27;5.80;78.60
68476;DHT22;55464;48.266;14.188;2023-01-10T14:38:00;5.70;79.00
68476;DHT22;55464;48.266;14.188;2023-01-10T14:40:43;5.60;79.30
68476;DHT22;55464;48.266;14.188;2023-01-10T14:43:17;5.60;79.50
68476;DHT22;55464;48.266;14.188;2023-01-10T14:48:40;5.60;80.80
68476;DHT22;55464;48.266;14.188;2023-01-10T14:53:41;5.40;81.90
68476;DHT22;55464;48.266;14.188;2023-01-10T14:56:27;5.40;82.40
68476;DHT22;55464;48.266;14.188;2023-01-10T14:58:53;5.40;82.20
68476;DHT22;55464;48.266;14.188;2023-01-10T15:01:25;5.40;82.00
68476;DHT22;55464;48.266;14.188;2023-01-10T15:03:52;5.30;81.40
68476;DHT22;55464;48.266;14.188;2023-01-10T15:06:18;5.30;80.70
68476;DHT22;55464;48.266;14.188;2023-01-10T15:08:44;5.30;81.00
68476;DHT22;55464;48.266;14.188;2023-01-10T15:11:11;5.10;80.50
68476;DHT22;55464;48.266;14.188;2023-01-10T15:13:48;5.10;80.30
68476;DHT22;55464;48.266;14.188;2023-01-10T15:16:21;5.10;80.70
68476;DHT22;55464;48.266;14.188;2023-01-10T15:18:48;5.00;81.10
68476;DHT22;55464;48.266;14.188;2023-01-10T15:21:15;5.00;81.30
68476;DHT22;55464;48.266;14.188;2023-01-10T15:23:44;5.10;81.20
68476;DHT22;55464;48.266;14.188;2023-01-10T15:28:48;5.00;82.00
68476;DHT22;55464;48.266;14.188;2023-01-10T15:31:27;5.00;82.90
68476;DHT22;55464;48.266;14.188;2023-01-10T15:33:53;5.00;83.30
68476;DHT22;55464;48.266;14.188;2023-01-10T15:36:23;5.00;83.50
68476;DHT22;55464;48.266;14.188;2023-01-10T15:38:50;5.00;83.40
68476;DHT22;55464;48.266;14.188;2023-01-10T15:41:18;5.00;83.50
68476;DHT22;55464;48.266;14.188;2023-01-10T15:43:45;5.10;83.60
68476;DHT22;55464;48.266;14.188;2023-01-10T15:46:24;5.10;83.70
68476;DHT22;55464;48.266;14.188;2023-01-10T15:51:33;5.10;83.60
68476;DHT22;55464;48.266;14.188;2023-01-10T15:54:01;5.10;83.60
68476;DHT22;55464;48.266;14.188;2023-01-10T15:59:00;5.10;83.50
68476;DHT22;55464;48.266;14.188;2023-01-10T16:01:28;5.00;83.60
68476;DHT22;55464;48.266;14.188;2023-01-10T16:03:57;5.00;83.70
68476;DHT22;55464;48.266;14.188;2023-01-10T16:06:28;5.00;83.30
68476;DHT22;55464;48.266;14.188;2023-01-10T16:08:57;5.10;82.80
68476;DHT22;55464;48.266;14.188;2023-01-10T16:11:25;5.00;82.70
68476;DHT22;55464;48.266;14.188;2023-01-10T16:14:10;5.00;82.60
68476;DHT22;55464;48.266;14.188;2023-01-10T16:16:36;5.00;82.30
68476;DHT22;55464;48.266;14.188;2023-01-10T16:19:02;5.10;82.20
68476;DHT22;55464;48.266;14.188;2023-01-10T16:24:30;5.00;81.60
68476;DHT22;55464;48.266;14.188;2023-01-10T16:26:57;5.10;81.40
68476;DHT22;55464;48.266;14.188;2023-01-10T16:29:25;5.10;81.30
68476;DHT22;55464;48.266;14.188;2023-01-10T16:31:51;5.10;81.10
68476;DHT22;55464;48.266;14.188;2023-01-10T16:34:18;5.10;81.00
68476;DHT22;55464;48.266;14.188;2023-01-10T16:36:44;5.10;81.20
68476;DHT22;55464;48.266;14.188;2023-01-10T16:39:21;5.00;81.10
68476;DHT22;55464;48.266;14.188;2023-01-10T16:41:47;5.00;81.30
68476;DHT22;55464;48.266;14.188;2023-01-10T16:44:32;5.00;81.30
68476;DHT22;55464;48.266;14.188;2023-01-10T16:46:59;5.10;81.20
68476;DHT22;55464;48.266;14.188;2023-01-10T16:49:26;5.00;81.10
68476;DHT22;55464;48.266;14.188;2023-01-10T16:51:52;5.10;81.00
68476;DHT22;55464;48.266;14.188;2023-01-10T16:54:22;5.10;80.90
68476;DHT22;55464;48.266;14.188;2023-01-10T16:56:49;5.10;81.30
68476;DHT22;55464;48.266;14.188;2023-01-10T16:59:15;5.00;81.00
68476;DHT22;55464;48.266;14.188;2023-01-10T17:01:56;5.00;81.40
68476;DHT22;55464;48.266;14.188;2023-01-10T17:04:27;5.00;81.60
68476;DHT22;55464;48.266;14.188;2023-01-10T17:06:55;5.00;81.30
68476;DHT22;55464;48.266;14.188;2023-01-10T17:09:28;5.00;81.50
68476;DHT22;55464;48.266;14.188;2023-01-10T17:12:02;5.00;81.70
68476;DHT22;55464;48.266;14.188;2023-01-10T17:14:30;5.00;81.90
68476;DHT22;55464;48.266;14.188;2023-01-10T17:16:56;5.00;81.90
68476;DHT22;55464;48.266;14.188;2023-01-10T17:19:22;5.00;81.80
68476;DHT22;55464;48.266;14.188;2023-01-10T17:21:48;4.90;81.50
68476;DHT22;55464;48.266;14.188;2023-01-10T17:24:13;5.00;81.70
68476;DHT22;55464;48.266;14.188;2023-01-10T17:26:39;5.00;81.40
68476;DHT22;55464;48.266;14.188;2023-01-10T17:29:05;5.00;81.10
68476;DHT22;55464;48.266;14.188;2023-01-10T17:31:30;5.00;80.80
68476;DHT22;55464;48.266;14.188;2023-01-10T17:33:56;5.00;81.00
68476;DHT22;55464;48.266;14.188;2023-01-10T17:36:22;4.80;80.90
68476;DHT22;55464;48.266;14.188;2023-01-10T17:38:53;4.90;80.90
68476;DHT22;55464;48.266;14.188;2023-01-10T17:41:18;4.90;80.80
68476;DHT22;55464;48.266;14.188;2023-01-10T17:43:44;4.90;81.00
68476;DHT22;55464;48.266;14.188;2023-01-10T17:46:10;4.90;80.90
68476;DHT22;55464;48.266;14.188;2023-01-10T17:48:35;5.00;80.60
68476;DHT22;55464;48.266;14.188;2023-01-10T17:51:02;5.00;80.90